sensor_id;sensor_type;location;lat;lon;timestamp;P1;durP1;ratioP1;P2;durP2;ratioP2
55320;SDS011;41184;44.272;19.890;2022-12-05T00:00:29;70.55;;;44.85;;
55320;SDS011;41184;44.272;19.890;2022-12-05T00:02:55;95.75;;;60.55;;
55320;SDS011;41184;44.272;19.890;2022-12-05T00:05:21;91.40;;;56.70;;
55320;SDS011;41184;44.272;19.890;2022-12-05T00:07:47;54.85;;;39.05;;
55320;SDS011;41184;44.272;19.890;2022-12-05T00:10:13;75.70;;;49.03;;
55320;SDS011;41184;44.272;19.890;2022-12-05T00:12:39;41.45;;;28.35;;
55320;SDS011;41184;44.272;19.890;2022-12-05T00:15:05;31.27;;;21.65;;
55320;SDS011;41184;44.272;19.890;2022-12-05T00:17:33;53.83;;;32.17;;
55320;SDS011;41184;44.272;19.890;2022-12-05T00:19:59;56.30;;;44.47;;
55320;SDS011;41184;44.272;19.890;2022-12-05T00:22:25;60.70;;;40.60;;
55320;SDS011;41184;44.272;19.890;2022-12-05T00:24:51;53.17;;;36.00;;
55320;SDS011;41184;44.272;19.890;2022-12-05T00:27:17;47.90;;;32.67;;
55320;SDS011;41184;44.272;19.890;2022-12-05T00:29:43;88.07;;;62.20;;
55320;SDS011;41184;44.272;19.890;2022-12-05T00:32:10;54.53;;;41.53;;
55320;SDS011;41184;44.272;19.890;2022-12-05T00:34:36;54.13;;;40.35;;
55320;SDS011;41184;44.272;19.890;2022-12-05T00:37:02;36.47;;;27.23;;
55320;SDS011;41184;44.272;19.890;2022-12-05T00:39:28;32.58;;;22.95;;
55320;SDS011;41184;44.272;19.890;2022-12-05T00:41:54;60.25;;;39.70;;
55320;SDS011;41184;44.272;19.890;2022-12-05T00:44:20;81.82;;;48.50;;
55320;SDS011;41184;44.272;19.890;2022-12-05T00:46:46;103.25;;;54.00;;
55320;SDS011;41184;44.272;19.890;2022-12-05T00:49:12;69.95;;;38.70;;
55320;SDS011;41184;44.272;19.890;2022-12-05T00:51:39;46.72;;;28.30;;
55320;SDS011;41184;44.272;19.890;2022-12-05T00:54:07;48.03;;;28.98;;
55320;SDS011;41184;44.272;19.890;2022-12-05T00:56:34;31.55;;;20.98;;
55320;SDS011;41184;44.272;19.890;2022-12-05T00:59:01;25.48;;;17.02;;
55320;SDS011;41184;44.272;19.890;2022-12-05T01:01:31;25.52;;;18.33;;
55320;SDS011;41184;44.272;19.890;2022-12-05T01:03:58;28.30;;;19.73;;
55320;SDS011;41184;44.272;19.890;2022-12-05T01:06:24;34.80;;;23.30;;
55320;SDS011;41184;44.272;19.890;2022-12-05T01:08:52;36.15;;;25.95;;
55320;SDS011;41184;44.272;19.890;2022-12-05T01:11:18;33.53;;;23.10;;
55320;SDS011;41184;44.272;19.890;2022-12-05T01:13:45;76.25;;;47.72;;
55320;SDS011;41184;44.272;19.890;2022-12-05T01:16:18;61.65;;;40.45;;
55320;SDS011;41184;44.272;19.890;2022-12-05T01:18:44;51.55;;;35.85;;
55320;SDS011;41184;44.272;19.890;2022-12-05T01:21:11;43.28;;;30.77;;
55320;SDS011;41184;44.272;19.890;2022-12-05T01:23:37;54.53;;;33.45;;
55320;SDS011;41184;44.272;19.890;2022-12-05T01:26:04;49.80;;;32.47;;
55320;SDS011;41184;44.272;19.890;2022-12-05T01:28:31;41.67;;;29.33;;
55320;SDS011;41184;44.272;19.890;2022-12-05T01:30:57;54.45;;;34.97;;
55320;SDS011;41184;44.272;19.890;2022-12-05T01:33:23;40.05;;;28.20;;
55320;SDS011;41184;44.272;19.890;2022-12-05T01:35:49;68.25;;;42.78;;
55320;SDS011;41184;44.272;19.890;2022-12-05T01:38:15;38.72;;;26.92;;
55320;SDS011;41184;44.272;19.890;2022-12-05T01:40:41;45.38;;;30.33;;
55320;SDS011;41184;44.272;19.890;2022-12-05T01:43:15;37.30;;;25.23;;
55320;SDS011;41184;44.272;19.890;2022-12-05T01:45:42;35.78;;;23.60;;
55320;SDS011;41184;44.272;19.890;2022-12-05T01:48:18;38.45;;;27.23;;
55320;SDS011;41184;44.272;19.890;2022-12-05T01:50:46;28.20;;;20.08;;
55320;SDS011;41184;44.272;19.890;2022-12-05T01:53:12;37.67;;;24.65;;
55320;SDS011;41184;44.272;19.890;2022-12-05T01:55:38;30.90;;;20.85;;
55320;SDS011;41184;44.272;19.890;2022-12-05T01:58:05;29.42;;;19.67;;
55320;SDS011;41184;44.272;19.890;2022-12-05T02:00:32;27.13;;;18.67;;
55320;SDS011;41184;44.272;19.890;2022-12-05T02:02:59;24.52;;;16.63;;
55320;SDS011;41184;44.272;19.890;2022-12-05T02:05:27;103.50;;;55.95;;
55320;SDS011;41184;44.272;19.890;2022-12-05T02:07:54;46.08;;;28.67;;
55320;SDS011;41184;44.272;19.890;2022-12-05T02:10:20;34.83;;;23.55;;
55320;SDS011;41184;44.272;19.890;2022-12-05T02:12:47;35.45;;;24.35;;
55320;SDS011;41184;44.272;19.890;2022-12-05T02:30:19;19.88;;;13.88;;
55320;SDS011;41184;44.272;19.890;2022-12-05T02:32:47;25.45;;;16.45;;
55320;SDS011;41184;44.272;19.890;2022-12-05T02:38:09;21.77;;;15.10;;
55320;SDS011;41184;44.272;19.890;2022-12-05T02:40:40;18.08;;;12.43;;
55320;SDS011;41184;44.272;19.890;2022-12-05T02:43:13;19.15;;;13.43;;
55320;SDS011;41184;44.272;19.890;2022-12-05T02:45:42;21.73;;;13.80;;
55320;SDS011;41184;44.272;19.890;2022-12-05T02:48:10;19.40;;;13.52;;
55320;SDS011;41184;44.272;19.890;2022-12-05T02:50:37;19.60;;;13.70;;
55320;SDS011;41184;44.272;19.890;2022-12-05T02:53:09;22.10;;;16.25;;
55320;SDS011;41184;44.272;19.890;2022-12-05T02:55:36;28.83;;;19.00;;
55320;SDS011;41184;44.272;19.890;2022-12-05T02:58:04;29.55;;;20.40;;
55320;SDS011;41184;44.272;19.890;2022-12-05T03:00:33;68.20;;;43.75;;
55320;SDS011;41184;44.272;19.890;2022-12-05T03:03:00;32.65;;;20.70;;
55320;SDS011;41184;44.272;19.890;2022-12-05T03:08:12;32.08;;;22.08;;
55320;SDS011;41184;44.272;19.890;2022-12-05T03:10:41;35.03;;;21.67;;
55320;SDS011;41184;44.272;19.890;2022-12-05T03:13:12;30.58;;;21.60;;
55320;SDS011;41184;44.272;19.890;2022-12-05T03:15:41;31.60;;;21.80;;
55320;SDS011;41184;44.272;19.890;2022-12-05T03:20:41;32.55;;;22.85;;
55320;SDS011;41184;44.272;19.890;2022-12-05T03:23:13;30.08;;;22.70;;
55320;SDS011;41184;44.272;19.890;2022-12-05T03:25:51;31.23;;;23.58;;
55320;SDS011;41184;44.272;19.890;2022-12-05T03:31:00;34.92;;;22.88;;
55320;SDS011;41184;44.272;19.890;2022-12-05T03:33:30;57.30;;;33.58;;
55320;SDS011;41184;44.272;19.890;2022-12-05T03:36:13;91.57;;;50.97;;
55320;SDS011;41184;44.272;19.890;2022-12-05T03:38:45;65.25;;;37.35;;
55320;SDS011;41184;44.272;19.890;2022-12-05T03:51:14;21.17;;;15.43;;
55320;SDS011;41184;44.272;19.890;2022-12-05T03:53:46;30.30;;;20.70;;
55320;SDS011;41184;44.272;19.890;2022-12-05T03:56:18;44.60;;;27.95;;
55320;SDS011;41184;44.272;19.890;2022-12-05T03:58:51;93.07;;;52.30;;
55320;SDS011;41184;44.272;19.890;2022-12-05T04:01:22;38.92;;;24.25;;
55320;SDS011;41184;44.272;19.890;2022-12-05T04:03:54;29.50;;;18.02;;
55320;SDS011;41184;44.272;19.890;2022-12-05T04:06:28;58.55;;;36.70;;
55320;SDS011;41184;44.272;19.890;2022-12-05T04:09:03;31.48;;;19.95;;
55320;SDS011;41184;44.272;19.890;2022-12-05T04:11:32;51.70;;;29.02;;
55320;SDS011;41184;44.272;19.890;2022-12-05T04:14:00;34.22;;;20.05;;
55320;SDS011;41184;44.272;19.890;2022-12-05T04:16:31;31.38;;;21.02;;
55320;SDS011;41184;44.272;19.890;2022-12-05T04:21:48;36.90;;;23.70;;
55320;SDS011;41184;44.272;19.890;2022-12-05T04:24:15;31.38;;;21.75;;
55320;SDS011;41184;44.272;19.890;2022-12-05T04:27:26;38.97;;;25.45;;
55320;SDS011;41184;44.272;19.890;2022-12-05T04:29:55;44.17;;;29.08;;
55320;SDS011;41184;44.272;19.890;2022-12-05T04:32:25;32.92;;;23.35;;
55320;SDS011;41184;44.272;19.890;2022-12-05T04:34:54;35.70;;;25.85;;
55320;SDS011;41184;44.272;19.890;2022-12-05T04:37:21;33.33;;;23.33;;
55320;SDS011;41184;44.272;19.890;2022-12-05T04:39:53;30.90;;;22.30;;
55320;SDS011;41184;44.272;19.890;2022-12-05T04:42:24;40.35;;;24.05;;
55320;SDS011;41184;44.272;19.890;2022-12-05T04:44:52;40.22;;;27.55;;
55320;SDS011;41184;44.272;19.890;2022-12-05T04:47:23;44.50;;;30.63;;
55320;SDS011;41184;44.272;19.890;2022-12-05T04:50:00;37.92;;;24.83;;
55320;SDS011;41184;44.272;19.890;2022-12-05T04:52:29;64.43;;;41.05;;
55320;SDS011;41184;44.272;19.890;2022-12-05T04:55:02;55.80;;;34.40;;
55320;SDS011;41184;44.272;19.890;2022-12-05T04:57:32;58.88;;;38.22;;
55320;SDS011;41184;44.272;19.890;2022-12-05T05:00:00;66.03;;;34.47;;
55320;SDS011;41184;44.272;19.890;2022-12-05T05:02:28;50.20;;;35.35;;
55320;SDS011;41184;44.272;19.890;2022-12-05T05:04:58;43.88;;;32.10;;
55320;SDS011;41184;44.272;19.890;2022-12-05T05:07:28;41.45;;;29.85;;
55320;SDS011;41184;44.272;19.890;2022-12-05T05:09:54;46.55;;;33.75;;
55320;SDS011;41184;44.272;19.890;2022-12-05T05:12:21;42.17;;;30.33;;
55320;SDS011;41184;44.272;19.890;2022-12-05T05:14:47;52.38;;;37.05;;
55320;SDS011;41184;44.272;19.890;2022-12-05T05:17:13;47.33;;;34.25;;
55320;SDS011;41184;44.272;19.890;2022-12-05T05:19:39;56.38;;;39.95;;
55320;SDS011;41184;44.272;19.890;2022-12-05T05:22:05;52.70;;;35.80;;
55320;SDS011;41184;44.272;19.890;2022-12-05T05:24:31;45.97;;;32.80;;
55320;SDS011;41184;44.272;19.890;2022-12-05T05:26:57;41.63;;;30.10;;
55320;SDS011;41184;44.272;19.890;2022-12-05T05:29:23;44.22;;;31.20;;
55320;SDS011;41184;44.272;19.890;2022-12-05T05:31:50;45.83;;;30.50;;
55320;SDS011;41184;44.272;19.890;2022-12-05T05:34:16;37.25;;;27.25;;
55320;SDS011;41184;44.272;19.890;2022-12-05T05:36:42;34.20;;;24.45;;
55320;SDS011;41184;44.272;19.890;2022-12-05T05:39:10;47.72;;;30.88;;
55320;SDS011;41184;44.272;19.890;2022-12-05T05:41:36;39.78;;;29.13;;
55320;SDS011;41184;44.272;19.890;2022-12-05T05:44:03;45.38;;;31.02;;
55320;SDS011;41184;44.272;19.890;2022-12-05T05:46:35;46.00;;;31.33;;
55320;SDS011;41184;44.272;19.890;2022-12-05T05:49:01;70.53;;;49.72;;
55320;SDS011;41184;44.272;19.890;2022-12-05T05:51:28;100.72;;;71.10;;
55320;SDS011;41184;44.272;19.890;2022-12-05T05:53:54;119.60;;;76.32;;
55320;SDS011;41184;44.272;19.890;2022-12-05T05:56:21;135.60;;;90.32;;
55320;SDS011;41184;44.272;19.890;2022-12-05T05:58:54;125.15;;;82.13;;
55320;SDS011;41184;44.272;19.890;2022-12-05T06:01:20;97.15;;;65.68;;
55320;SDS011;41184;44.272;19.890;2022-12-05T06:03:46;78.80;;;53.75;;
55320;SDS011;41184;44.272;19.890;2022-12-05T06:06:12;84.88;;;56.80;;
55320;SDS011;41184;44.272;19.890;2022-12-05T06:08:40;89.28;;;61.50;;
55320;SDS011;41184;44.272;19.890;2022-12-05T06:11:07;85.90;;;56.72;;
55320;SDS011;41184;44.272;19.890;2022-12-05T06:13:33;90.72;;;61.42;;
55320;SDS011;41184;44.272;19.890;2022-12-05T06:15:59;115.90;;;74.38;;
55320;SDS011;41184;44.272;19.890;2022-12-05T06:18:25;116.30;;;74.00;;
55320;SDS011;41184;44.272;19.890;2022-12-05T06:20:54;117.20;;;76.43;;
55320;SDS011;41184;44.272;19.890;2022-12-05T06:23:21;119.32;;;76.57;;
55320;SDS011;41184;44.272;19.890;2022-12-05T06:25:48;140.25;;;100.45;;
55320;SDS011;41184;44.272;19.890;2022-12-05T06:28:14;136.52;;;92.32;;
55320;SDS011;41184;44.272;19.890;2022-12-05T06:30:41;144.05;;;95.43;;
55320;SDS011;41184;44.272;19.890;2022-12-05T06:33:07;127.88;;;85.20;;
55320;SDS011;41184;44.272;19.890;2022-12-05T06:35:33;137.35;;;93.40;;
55320;SDS011;41184;44.272;19.890;2022-12-05T06:37:59;153.45;;;103.80;;
55320;SDS011;41184;44.272;19.890;2022-12-05T06:40:25;164.82;;;110.65;;
55320;SDS011;41184;44.272;19.890;2022-12-05T06:42:51;144.90;;;102.28;;
55320;SDS011;41184;44.272;19.890;2022-12-05T06:45:17;135.98;;;99.00;;
55320;SDS011;41184;44.272;19.890;2022-12-05T06:47:43;136.77;;;103.03;;
55320;SDS011;41184;44.272;19.890;2022-12-05T06:50:09;120.90;;;84.70;;
55320;SDS011;41184;44.272;19.890;2022-12-05T06:52:35;127.57;;;89.20;;
55320;SDS011;41184;44.272;19.890;2022-12-05T06:55:01;103.35;;;72.13;;
55320;SDS011;41184;44.272;19.890;2022-12-05T06:57:27;75.00;;;49.97;;
55320;SDS011;41184;44.272;19.890;2022-12-05T06:59:53;69.10;;;47.97;;
55320;SDS011;41184;44.272;19.890;2022-12-05T07:02:39;112.93;;;74.15;;
55320;SDS011;41184;44.272;19.890;2022-12-05T07:05:06;131.88;;;91.97;;
55320;SDS011;41184;44.272;19.890;2022-12-05T07:07:32;161.27;;;113.70;;
55320;SDS011;41184;44.272;19.890;2022-12-05T07:10:11;160.68;;;112.28;;
55320;SDS011;41184;44.272;19.890;2022-12-05T07:12:39;156.38;;;110.22;;
55320;SDS011;41184;44.272;19.890;2022-12-05T07:15:08;154.03;;;108.93;;
55320;SDS011;41184;44.272;19.890;2022-12-05T07:17:42;157.32;;;106.40;;
55320;SDS011;41184;44.272;19.890;2022-12-05T07:20:08;157.88;;;106.90;;
55320;SDS011;41184;44.272;19.890;2022-12-05T07:22:35;158.63;;;109.65;;
55320;SDS011;41184;44.272;19.890;2022-12-05T07:25:03;150.90;;;105.20;;
55320;SDS011;41184;44.272;19.890;2022-12-05T07:27:30;146.27;;;106.15;;
55320;SDS011;41184;44.272;19.890;2022-12-05T07:29:56;154.38;;;105.13;;
55320;SDS011;41184;44.272;19.890;2022-12-05T07:32:22;135.98;;;95.93;;
55320;SDS011;41184;44.272;19.890;2022-12-05T07:34:48;143.98;;;98.78;;
55320;SDS011;41184;44.272;19.890;2022-12-05T07:37:14;138.77;;;94.10;;
55320;SDS011;41184;44.272;19.890;2022-12-05T07:39:40;137.43;;;99.15;;
55320;SDS011;41184;44.272;19.890;2022-12-05T07:42:06;143.20;;;98.03;;
55320;SDS011;41184;44.272;19.890;2022-12-05T07:44:32;113.57;;;77.20;;
55320;SDS011;41184;44.272;19.890;2022-12-05T07:46:59;108.53;;;70.80;;
55320;SDS011;41184;44.272;19.890;2022-12-05T07:49:25;101.65;;;60.85;;
55320;SDS011;41184;44.272;19.890;2022-12-05T07:51:51;89.72;;;58.75;;
55320;SDS011;41184;44.272;19.890;2022-12-05T07:54:17;93.15;;;59.53;;
55320;SDS011;41184;44.272;19.890;2022-12-05T07:56:43;93.90;;;57.03;;
55320;SDS011;41184;44.272;19.890;2022-12-05T07:59:09;82.97;;;54.70;;
55320;SDS011;41184;44.272;19.890;2022-12-05T08:01:35;100.05;;;60.38;;
55320;SDS011;41184;44.272;19.890;2022-12-05T08:04:01;105.80;;;62.80;;
55320;SDS011;41184;44.272;19.890;2022-12-05T08:06:28;124.90;;;75.60;;
55320;SDS011;41184;44.272;19.890;2022-12-05T08:08:54;115.82;;;75.60;;
55320;SDS011;41184;44.272;19.890;2022-12-05T08:11:22;116.35;;;76.15;;
55320;SDS011;41184;44.272;19.890;2022-12-05T08:13:48;118.30;;;73.57;;
55320;SDS011;41184;44.272;19.890;2022-12-05T08:16:16;99.72;;;69.78;;
55320;SDS011;41184;44.272;19.890;2022-12-05T08:18:42;90.03;;;63.53;;
55320;SDS011;41184;44.272;19.890;2022-12-05T08:21:09;105.72;;;63.80;;
55320;SDS011;41184;44.272;19.890;2022-12-05T08:23:36;100.88;;;64.32;;
55320;SDS011;41184;44.272;19.890;2022-12-05T08:26:06;92.82;;;63.25;;
55320;SDS011;41184;44.272;19.890;2022-12-05T08:28:33;102.60;;;69.22;;
55320;SDS011;41184;44.272;19.890;2022-12-05T08:31:07;112.88;;;74.85;;
55320;SDS011;41184;44.272;19.890;2022-12-05T08:33:33;114.82;;;73.75;;
55320;SDS011;41184;44.272;19.890;2022-12-05T08:36:00;124.32;;;74.75;;
55320;SDS011;41184;44.272;19.890;2022-12-05T08:38:35;126.30;;;74.72;;
55320;SDS011;41184;44.272;19.890;2022-12-05T08:41:06;98.15;;;67.93;;
55320;SDS011;41184;44.272;19.890;2022-12-05T08:43:37;106.32;;;66.65;;
55320;SDS011;41184;44.272;19.890;2022-12-05T08:46:03;106.55;;;70.85;;
55320;SDS011;41184;44.272;19.890;2022-12-05T08:48:30;103.00;;;65.55;;
55320;SDS011;41184;44.272;19.890;2022-12-05T08:50:57;84.97;;;56.05;;
55320;SDS011;41184;44.272;19.890;2022-12-05T08:53:23;78.95;;;53.03;;
55320;SDS011;41184;44.272;19.890;2022-12-05T08:55:49;67.78;;;43.65;;
55320;SDS011;41184;44.272;19.890;2022-12-05T08:58:16;88.50;;;46.63;;
55320;SDS011;41184;44.272;19.890;2022-12-05T09:00:42;87.15;;;42.92;;
55320;SDS011;41184;44.272;19.890;2022-12-05T09:03:09;66.03;;;37.58;;
55320;SDS011;41184;44.272;19.890;2022-12-05T09:05:35;62.38;;;37.58;;
55320;SDS011;41184;44.272;19.890;2022-12-05T09:08:02;68.88;;;44.08;;
55320;SDS011;41184;44.272;19.890;2022-12-05T09:10:28;59.80;;;39.35;;
55320;SDS011;41184;44.272;19.890;2022-12-05T09:12:54;56.20;;;39.47;;
55320;SDS011;41184;44.272;19.890;2022-12-05T09:15:20;52.83;;;38.63;;
55320;SDS011;41184;44.272;19.890;2022-12-05T09:17:46;66.43;;;37.80;;
55320;SDS011;41184;44.272;19.890;2022-12-05T09:20:12;66.70;;;40.38;;
55320;SDS011;41184;44.272;19.890;2022-12-05T09:22:39;67.88;;;41.03;;
55320;SDS011;41184;44.272;19.890;2022-12-05T09:25:05;59.20;;;39.78;;
55320;SDS011;41184;44.272;19.890;2022-12-05T09:27:31;74.70;;;37.90;;
55320;SDS011;41184;44.272;19.890;2022-12-05T09:29:57;81.22;;;49.85;;
55320;SDS011;41184;44.272;19.890;2022-12-05T09:32:24;59.90;;;40.35;;
55320;SDS011;41184;44.272;19.890;2022-12-05T09:34:50;59.42;;;36.72;;
55320;SDS011;41184;44.272;19.890;2022-12-05T09:37:16;48.67;;;34.80;;
55320;SDS011;41184;44.272;19.890;2022-12-05T09:39:45;41.72;;;32.30;;
55320;SDS011;41184;44.272;19.890;2022-12-05T09:49:50;32.55;;;23.88;;
55320;SDS011;41184;44.272;19.890;2022-12-05T09:52:28;42.47;;;26.17;;
55320;SDS011;41184;44.272;19.890;2022-12-05T09:54:56;49.70;;;34.17;;
55320;SDS011;41184;44.272;19.890;2022-12-05T09:57:25;45.25;;;30.38;;
55320;SDS011;41184;44.272;19.890;2022-12-05T09:59:54;51.67;;;28.52;;
55320;SDS011;41184;44.272;19.890;2022-12-05T10:02:40;40.72;;;25.55;;
55320;SDS011;41184;44.272;19.890;2022-12-05T10:05:12;51.28;;;26.73;;
55320;SDS011;41184;44.272;19.890;2022-12-05T10:08:06;47.10;;;30.17;;
55320;SDS011;41184;44.272;19.890;2022-12-05T10:10:38;39.00;;;27.35;;
55320;SDS011;41184;44.272;19.890;2022-12-05T10:13:27;36.00;;;25.42;;
55320;SDS011;41184;44.272;19.890;2022-12-05T10:15:59;42.10;;;27.60;;
55320;SDS011;41184;44.272;19.890;2022-12-05T10:20:58;58.63;;;39.15;;
55320;SDS011;41184;44.272;19.890;2022-12-05T10:23:26;51.22;;;32.58;;
55320;SDS011;41184;44.272;19.890;2022-12-05T10:25:56;39.20;;;25.40;;
55320;SDS011;41184;44.272;19.890;2022-12-05T10:28:31;36.03;;;25.77;;
55320;SDS011;41184;44.272;19.890;2022-12-05T10:30:59;48.40;;;32.00;;
55320;SDS011;41184;44.272;19.890;2022-12-05T10:33:27;43.17;;;32.70;;
55320;SDS011;41184;44.272;19.890;2022-12-05T10:35:55;34.38;;;23.92;;
55320;SDS011;41184;44.272;19.890;2022-12-05T10:38:22;34.33;;;23.25;;
55320;SDS011;41184;44.272;19.890;2022-12-05T10:40:50;35.95;;;25.88;;
55320;SDS011;41184;44.272;19.890;2022-12-05T10:43:26;33.88;;;26.23;;
55320;SDS011;41184;44.272;19.890;2022-12-05T10:45:53;43.95;;;26.63;;
55320;SDS011;41184;44.272;19.890;2022-12-05T10:48:19;39.17;;;24.85;;
55320;SDS011;41184;44.272;19.890;2022-12-05T10:50:47;40.03;;;28.10;;
55320;SDS011;41184;44.272;19.890;2022-12-05T10:53:14;50.13;;;34.65;;
55320;SDS011;41184;44.272;19.890;2022-12-05T10:55:43;51.15;;;39.97;;
55320;SDS011;41184;44.272;19.890;2022-12-05T10:58:18;44.42;;;30.75;;
55320;SDS011;41184;44.272;19.890;2022-12-05T11:00:51;42.60;;;22.40;;
55320;SDS011;41184;44.272;19.890;2022-12-05T11:05:48;35.72;;;20.33;;
55320;SDS011;41184;44.272;19.890;2022-12-05T11:08:20;50.90;;;28.98;;
55320;SDS011;41184;44.272;19.890;2022-12-05T11:10:49;29.52;;;19.95;;
55320;SDS011;41184;44.272;19.890;2022-12-05T11:13:24;44.50;;;21.90;;
55320;SDS011;41184;44.272;19.890;2022-12-05T11:15:50;16.48;;;12.57;;
55320;SDS011;41184;44.272;19.890;2022-12-05T11:18:18;19.65;;;12.07;;
55320;SDS011;41184;44.272;19.890;2022-12-05T11:20:44;23.30;;;17.73;;
55320;SDS011;41184;44.272;19.890;2022-12-05T11:23:43;30.30;;;16.45;;
55320;SDS011;41184;44.272;19.890;2022-12-05T11:26:03;27.52;;;15.35;;
55320;SDS011;41184;44.272;19.890;2022-12-05T11:28:30;21.20;;;14.32;;
55320;SDS011;41184;44.272;19.890;2022-12-05T11:30:58;25.50;;;16.95;;
55320;SDS011;41184;44.272;19.890;2022-12-05T11:33:25;36.45;;;20.10;;
55320;SDS011;41184;44.272;19.890;2022-12-05T11:35:52;17.58;;;13.35;;
55320;SDS011;41184;44.272;19.890;2022-12-05T11:38:20;25.30;;;14.30;;
55320;SDS011;41184;44.272;19.890;2022-12-05T11:51:47;21.02;;;13.82;;
55320;SDS011;41184;44.272;19.890;2022-12-05T11:57:35;26.40;;;15.43;;
55320;SDS011;41184;44.272;19.890;2022-12-05T12:10:39;29.50;;;17.42;;
55320;SDS011;41184;44.272;19.890;2022-12-05T12:15:57;55.53;;;41.63;;
55320;SDS011;41184;44.272;19.890;2022-12-05T12:26:09;76.80;;;66.80;;
55320;SDS011;41184;44.272;19.890;2022-12-05T12:28:39;60.72;;;55.10;;
55320;SDS011;41184;44.272;19.890;2022-12-05T12:43:54;34.28;;;26.95;;
55320;SDS011;41184;44.272;19.890;2022-12-05T12:48:57;27.40;;;18.63;;
55320;SDS011;41184;44.272;19.890;2022-12-05T12:51:31;85.70;;;51.97;;
55320;SDS011;41184;44.272;19.890;2022-12-05T12:56:31;35.72;;;21.67;;
55320;SDS011;41184;44.272;19.890;2022-12-05T12:59:07;33.08;;;19.63;;
55320;SDS011;41184;44.272;19.890;2022-12-05T13:01:51;45.97;;;24.95;;
55320;SDS011;41184;44.272;19.890;2022-12-05T13:04:22;41.33;;;27.83;;
55320;SDS011;41184;44.272;19.890;2022-12-05T13:06:54;39.40;;;21.90;;
55320;SDS011;41184;44.272;19.890;2022-12-05T13:09:23;29.90;;;20.33;;
55320;SDS011;41184;44.272;19.890;2022-12-05T13:11:52;37.78;;;25.08;;
55320;SDS011;41184;44.272;19.890;2022-12-05T13:14:20;40.53;;;19.65;;
55320;SDS011;41184;44.272;19.890;2022-12-05T13:16:49;45.95;;;28.13;;
55320;SDS011;41184;44.272;19.890;2022-12-05T13:21:46;32.38;;;18.63;;
55320;SDS011;41184;44.272;19.890;2022-12-05T13:24:12;41.15;;;23.35;;
55320;SDS011;41184;44.272;19.890;2022-12-05T13:26:38;29.70;;;17.73;;
55320;SDS011;41184;44.272;19.890;2022-12-05T13:29:13;25.85;;;15.63;;
55320;SDS011;41184;44.272;19.890;2022-12-05T13:31:43;27.90;;;16.35;;
55320;SDS011;41184;44.272;19.890;2022-12-05T13:36:58;39.58;;;19.23;;
55320;SDS011;41184;44.272;19.890;2022-12-05T13:39:51;21.90;;;16.30;;
55320;SDS011;41184;44.272;19.890;2022-12-05T13:42:38;31.38;;;21.40;;
55320;SDS011;41184;44.272;19.890;2022-12-05T13:45:15;38.85;;;22.05;;
55320;SDS011;41184;44.272;19.890;2022-12-05T13:53:45;37.70;;;25.00;;
55320;SDS011;41184;44.272;19.890;2022-12-05T13:55:55;41.28;;;22.63;;
55320;SDS011;41184;44.272;19.890;2022-12-05T14:00:50;27.92;;;23.13;;
55320;SDS011;41184;44.272;19.890;2022-12-05T14:05:57;32.75;;;22.33;;
55320;SDS011;41184;44.272;19.890;2022-12-05T14:15:54;27.90;;;21.98;;
55320;SDS011;41184;44.272;19.890;2022-12-05T14:18:42;33.47;;;22.08;;
55320;SDS011;41184;44.272;19.890;2022-12-05T14:33:43;56.85;;;42.47;;
55320;SDS011;41184;44.272;19.890;2022-12-05T14:36:16;72.93;;;48.30;;
55320;SDS011;41184;44.272;19.890;2022-12-05T14:38:43;68.15;;;52.88;;
55320;SDS011;41184;44.272;19.890;2022-12-05T14:41:31;70.50;;;53.05;;
55320;SDS011;41184;44.272;19.890;2022-12-05T14:43:55;64.47;;;45.92;;
55320;SDS011;41184;44.272;19.890;2022-12-05T14:46:26;75.78;;;52.40;;
55320;SDS011;41184;44.272;19.890;2022-12-05T14:48:53;50.90;;;36.05;;
55320;SDS011;41184;44.272;19.890;2022-12-05T14:56:49;49.38;;;35.75;;
55320;SDS011;41184;44.272;19.890;2022-12-05T14:59:24;61.90;;;44.35;;
55320;SDS011;41184;44.272;19.890;2022-12-05T15:01:55;69.28;;;48.05;;
55320;SDS011;41184;44.272;19.890;2022-12-05T15:11:59;73.80;;;52.47;;
55320;SDS011;41184;44.272;19.890;2022-12-05T15:14:26;89.90;;;58.67;;
55320;SDS011;41184;44.272;19.890;2022-12-05T15:16:54;94.43;;;64.03;;
55320;SDS011;41184;44.272;19.890;2022-12-05T15:19:22;96.03;;;65.50;;
55320;SDS011;41184;44.272;19.890;2022-12-05T15:21:52;109.32;;;73.70;;
55320;SDS011;41184;44.272;19.890;2022-12-05T15:24:20;95.57;;;69.22;;
55320;SDS011;41184;44.272;19.890;2022-12-05T15:26:53;100.10;;;65.35;;
55320;SDS011;41184;44.272;19.890;2022-12-05T15:36:53;81.30;;;53.90;;
55320;SDS011;41184;44.272;19.890;2022-12-05T15:39:21;90.63;;;57.92;;
55320;SDS011;41184;44.272;19.890;2022-12-05T15:41:49;94.88;;;58.58;;
55320;SDS011;41184;44.272;19.890;2022-12-05T15:44:16;91.68;;;59.38;;
55320;SDS011;41184;44.272;19.890;2022-12-05T15:46:43;101.45;;;63.13;;
55320;SDS011;41184;44.272;19.890;2022-12-05T15:49:16;80.00;;;52.95;;
55320;SDS011;41184;44.272;19.890;2022-12-05T15:51:43;89.85;;;62.95;;
55320;SDS011;41184;44.272;19.890;2022-12-05T15:56:39;86.38;;;61.40;;
55320;SDS011;41184;44.272;19.890;2022-12-05T16:01:33;99.00;;;68.45;;
55320;SDS011;41184;44.272;19.890;2022-12-05T16:04:05;91.05;;;63.90;;
55320;SDS011;41184;44.272;19.890;2022-12-05T16:06:41;97.70;;;66.95;;
55320;SDS011;41184;44.272;19.890;2022-12-05T16:09:12;150.43;;;105.83;;
55320;SDS011;41184;44.272;19.890;2022-12-05T16:11:39;114.28;;;74.38;;
55320;SDS011;41184;44.272;19.890;2022-12-05T16:14:15;121.03;;;82.82;;
55320;SDS011;41184;44.272;19.890;2022-12-05T16:16:41;123.80;;;80.20;;
55320;SDS011;41184;44.272;19.890;2022-12-05T16:19:15;122.07;;;80.35;;
55320;SDS011;41184;44.272;19.890;2022-12-05T16:21:45;134.55;;;85.95;;
55320;SDS011;41184;44.272;19.890;2022-12-05T16:26:50;118.32;;;80.00;;
55320;SDS011;41184;44.272;19.890;2022-12-05T16:29:24;98.97;;;68.15;;
55320;SDS011;41184;44.272;19.890;2022-12-05T16:31:58;105.30;;;69.47;;
55320;SDS011;41184;44.272;19.890;2022-12-05T16:34:25;131.10;;;85.07;;
55320;SDS011;41184;44.272;19.890;2022-12-05T16:36:51;111.88;;;74.00;;
55320;SDS011;41184;44.272;19.890;2022-12-05T16:39:18;90.90;;;66.50;;
55320;SDS011;41184;44.272;19.890;2022-12-05T16:41:45;96.15;;;67.60;;
55320;SDS011;41184;44.272;19.890;2022-12-05T16:46:49;76.93;;;48.47;;
55320;SDS011;41184;44.272;19.890;2022-12-05T16:49:17;83.15;;;54.90;;
55320;SDS011;41184;44.272;19.890;2022-12-05T16:51:45;79.97;;;53.03;;
55320;SDS011;41184;44.272;19.890;2022-12-05T16:54:17;87.22;;;51.78;;
55320;SDS011;41184;44.272;19.890;2022-12-05T16:56:43;70.60;;;48.13;;
55320;SDS011;41184;44.272;19.890;2022-12-05T16:59:12;64.85;;;42.60;;
55320;SDS011;41184;44.272;19.890;2022-12-05T17:01:41;72.05;;;45.35;;
55320;SDS011;41184;44.272;19.890;2022-12-05T17:04:08;88.45;;;53.67;;
55320;SDS011;41184;44.272;19.890;2022-12-05T17:06:35;86.45;;;60.00;;